createdAt,value
2023-03-22T00:04:45.781Z,11.38
2023-03-22T00:09:48.433Z,11.31
2023-03-22T00:14:52.300Z,11.27
2023-03-22T00:19:54.812Z,11.16
2023-03-22T00:24:57.484Z,11.14
2023-03-22T00:30:00.001Z,11.20
2023-03-22T00:35:03.427Z,10.86
2023-03-22T00:40:09.173Z,10.78
2023-03-22T00:45:13.388Z,10.71
2023-03-22T00:50:16.248Z,10.63
2023-03-22T00:55:18.894Z,10.64
2023-03-22T01:00:22.272Z,10.76
2023-03-22T01:05:25.333Z,10.78
2023-03-22T01:10:29.206Z,10.71
2023-03-22T01:15:31.757Z,10.51
2023-03-22T01:20:35.078Z,10.45
2023-03-22T01:25:37.802Z,10.40
2023-03-22T01:30:41.409Z,10.31
2023-03-22T01:35:44.701Z,10.27
2023-03-22T01:40:47.595Z,10.18
2023-03-22T01:45:53.063Z,10.17
2023-03-22T01:56:13.700Z,10.29
2023-03-22T02:01:20.750Z,10.30
2023-03-22T02:06:30.004Z,10.11
2023-03-22T02:11:43.953Z,9.91
2023-03-22T02:49:37.936Z,9.79
2023-03-22T02:54:49.110Z,9.81
2023-03-22T02:59:54.367Z,9.75
2023-03-22T03:04:58.410Z,9.90
2023-03-22T03:10:01.291Z,9.82
2023-03-22T03:15:15.202Z,9.97
2023-03-22T03:30:51.924Z,10.00
2023-03-22T03:36:02.907Z,10.02
2023-03-22T03:41:10.400Z,10.12
2023-03-22T03:46:13.109Z,10.22
2023-03-22T03:51:16.083Z,10.26
2023-03-22T03:56:18.857Z,10.06
2023-03-22T04:01:24.290Z,9.93
2023-03-22T04:06:40.267Z,9.86
2023-03-22T04:11:48.613Z,9.95
2023-03-22T04:16:53.050Z,9.96
2023-03-22T04:21:57.505Z,9.93
2023-03-22T04:27:00.147Z,9.99
2023-03-22T04:32:07.257Z,10.18
2023-03-22T04:37:19.674Z,10.16
2023-03-22T04:42:28.849Z,10.10
2023-03-22T04:47:42.779Z,10.18
2023-03-22T04:52:48.239Z,10.26
2023-03-22T04:57:51.311Z,10.13
2023-03-22T05:02:54.064Z,9.91
2023-03-22T05:08:07.100Z,9.76
2023-03-22T05:13:09.872Z,9.76
2023-03-22T05:18:20.687Z,9.86
2023-03-22T05:23:24.213Z,9.91
2023-03-22T05:28:32.039Z,10.08
2023-03-22T05:33:44.272Z,10.15
2023-03-22T05:38:49.998Z,10.32
2023-03-22T05:43:53.338Z,10.44
2023-03-22T05:48:56.510Z,10.52
2023-03-22T05:54:00.559Z,10.74
2023-03-22T05:59:12.573Z,10.89
2023-03-22T06:04:18.765Z,11.07
2023-03-22T06:09:42.608Z,11.07
2023-03-22T06:14:49.817Z,11.22
2023-03-22T06:20:09.796Z,11.36
2023-03-22T06:25:15.102Z,11.37
2023-03-22T06:30:21.350Z,11.42
2023-03-22T06:35:43.957Z,11.45
2023-03-22T06:40:51.453Z,11.74
2023-03-22T06:45:54.665Z,11.97
2023-03-22T06:51:03.051Z,12.18
2023-03-22T06:56:09.623Z,12.45
2023-03-22T07:01:22.254Z,12.63
2023-03-22T07:06:25.698Z,12.97
2023-03-22T07:16:51.210Z,13.20
2023-03-22T07:21:56.494Z,13.03
2023-03-22T07:27:00.046Z,12.79
2023-03-22T07:32:09.926Z,12.84
2023-03-22T07:37:39.587Z,13.11
2023-03-22T07:42:52.912Z,13.30
2023-03-22T07:48:12.138Z,13.53
2023-03-22T07:53:27.937Z,13.70
2023-03-22T07:58:31.323Z,13.68
2023-03-22T08:03:36.432Z,13.89
2023-03-22T08:08:48.054Z,14.03
2023-03-22T08:13:51.200Z,14.19
2023-03-22T08:18:54.007Z,14.16
2023-03-22T08:23:57.796Z,14.41
2023-03-22T08:29:11.462Z,14.48
2023-03-22T08:34:15.097Z,14.67
2023-03-22T08:39:18.201Z,14.83
2023-03-22T08:44:30.534Z,14.82
2023-03-22T08:49:34.140Z,15.10
2023-03-22T08:54:44.844Z,15.21
2023-03-22T09:00:08.100Z,15.31
2023-03-22T09:05:14.812Z,15.40
2023-03-22T09:10:18.755Z,15.53
2023-03-22T09:15:24.873Z,15.43
2023-03-22T09:20:52.836Z,15.40
2023-03-22T09:26:02.313Z,15.51
2023-03-22T09:31:13.249Z,15.76
2023-03-22T09:36:18.812Z,15.56
2023-03-22T09:41:32.057Z,15.67
2023-03-22T09:46:41.275Z,15.72
2023-03-22T09:52:13.914Z,15.93
2023-03-22T10:03:10.944Z,16.20
2023-03-22T10:14:05.915Z,16.09
2023-03-22T10:19:21.603Z,16.60
2023-03-22T10:24:28.646Z,16.76
2023-03-22T10:34:45.093Z,16.95
2023-03-22T10:39:53.387Z,17.29
2023-03-22T10:45:04.299Z,17.28
2023-03-22T10:50:14.274Z,17.99
2023-03-22T10:55:17.646Z,19.39
2023-03-22T11:00:21.814Z,19.56
2023-03-22T11:05:27.861Z,19.39
2023-03-22T12:03:39.451Z,21.43
2023-03-22T12:08:47.313Z,21.72
2023-03-22T12:14:17.401Z,22.79
2023-03-22T12:24:41.316Z,23.76
2023-03-22T12:29:54.949Z,22.54
2023-03-22T12:35:16.129Z,21.81
2023-03-22T12:40:24.653Z,21.62
2023-03-22T12:45:30.204Z,21.33
2023-03-22T12:50:42.651Z,20.61
2023-03-22T12:55:47.859Z,20.65
2023-03-22T13:06:26.062Z,20.32
2023-03-22T13:11:30.369Z,19.80
2023-03-22T13:16:50.864Z,19.58
2023-03-22T13:22:16.791Z,19.26
2023-03-22T13:27:19.509Z,19.24
2023-03-22T13:32:31.126Z,19.19
2023-03-22T13:37:42.076Z,19.20
2023-03-22T13:42:47.541Z,19.30
2023-03-22T13:48:12.141Z,19.21
2023-03-22T13:53:22.494Z,19.34
2023-03-22T14:03:48.291Z,19.51
2023-03-22T14:08:57.496Z,19.62
2023-03-22T14:14:05.214Z,19.33
2023-03-22T14:19:14.388Z,19.35
